Time;durP1;ratioP1;P1;durP2;ratioP2;P2;SDS_P1;SDS_P2;PMS_P1;PMS_P2;Temp;Humidity;BMP_temperature;BMP_pressure;BME280_temperature;BME280_humidity;BME280_pressure;Samples;Min_cycle;Max_cycle;Signal;HPM_P1;HPM_P2
2023/06/13 00:01:26;;;;;;;20.50;19.40;;;17.60;28.60;;;;;;2613765;54;20122;-71
2023/06/13 00:07:14;;;;;;;22.00;20.27;;;17.50;28.60;;;;;;2613973;54;20159;-72
2023/06/13 00:13:02;;;;;;;19.80;18.80;;;17.50;31.40;;;;;;2614274;54;20692;-71
2023/06/13 00:18:52;;;;;;;20.63;19.33;;;17.30;37.90;;;;;;2614026;54;20143;-71
2023/06/13 00:24:43;;;;;;;20.50;19.20;;;17.20;43.40;;;;;;2614192;46;20490;-72
2023/06/13 00:27:56;;;;;;;20.63;19.43;;;17.00;50.40;;;;;;2613253;54;20984;-71
2023/06/13 00:33:43;;;;;;;20.53;19.43;;;16.70;76.40;;;;;;2614330;54;20509;-72
2023/06/13 00:39:31;;;;;;;19.73;18.53;;;16.80;82.00;;;;;;2614271;54;20138;-71
2023/06/13 00:45:27;;;;;;;20.80;19.37;;;16.60;94.50;;;;;;2614968;54;20171;-70
2023/06/13 00:51:16;;;;;;;20.23;19.13;;;16.40;98.00;;;;;;2614834;54;20407;-71
2023/06/13 00:57:05;;;;;;;20.33;19.13;;;16.40;99.90;;;;;;2613908;54;20394;-71
2023/06/13 01:03:06;;;;;;;19.50;18.33;;;16.30;99.90;;;;;;2612867;54;20404;-72
2023/06/13 01:08:58;;;;;;;20.00;18.90;;;16.20;99.90;;;;;;2612659;54;20394;-71
2023/06/13 01:14:55;;;;;;;19.00;18.00;;;15.90;99.90;;;;;;2612649;54;20411;-72
2023/06/13 01:28:24;;;;;;;20.13;18.80;;;15.70;99.90;;;;;;2612411;54;20555;-71
2023/06/13 01:34:12;;;;;;;19.77;18.43;;;15.60;99.90;;;;;;2612515;54;20580;-71
2023/06/13 01:40:03;;;;;;;19.30;18.00;;;15.50;99.90;;;;;;2614009;54;20435;-71
2023/06/13 01:52:50;;;;;;;17.90;16.80;;;15.10;99.90;;;;;;2614567;54;20427;-71
2023/06/13 01:58:57;;;;;;;20.20;18.97;;;15.20;99.90;;;;;;2613776;39;20795;-71
2023/06/13 02:04:44;;;;;;;19.57;18.37;;;15.10;99.90;;;;;;2613489;54;20378;-71
2023/06/13 02:10:32;;;;;;;18.60;17.50;;;14.90;99.90;;;;;;2613962;54;20165;-72
2023/06/13 02:16:25;;;;;;;20.37;19.07;;;14.70;99.90;;;;;;2612382;46;20270;-71
2023/06/13 02:22:12;;;;;;;18.40;17.00;;;14.50;99.90;;;;;;2613634;54;20375;-71
2023/06/13 02:28:00;;;;;;;19.20;17.87;;;14.50;99.90;;;;;;2613513;54;20193;-70
2023/06/13 02:33:48;;;;;;;20.53;19.13;;;14.30;99.90;;;;;;2613679;54;20147;-71
2023/06/13 02:39:35;;;;;;;18.90;17.70;;;14.20;99.90;;;;;;2613468;54;20126;-71
2023/06/13 02:45:23;;;;;;;17.70;16.60;;;14.10;99.90;;;;;;2613796;54;20223;-71
2023/06/13 02:51:11;;;;;;;18.07;16.87;;;14.40;99.90;;;;;;2612839;54;20775;-75
2023/06/13 02:56:58;;;;;;;19.77;18.07;;;14.10;99.90;;;;;;2614155;39;20608;-74
2023/06/13 03:02:46;;;;;;;18.33;17.33;;;14.40;99.90;;;;;;2611288;54;20138;-73
2023/06/13 03:08:35;;;;;;;18.13;17.03;;;14.20;99.90;;;;;;2611921;54;20224;-74
2023/06/13 03:14:23;;;;;;;18.47;17.07;;;14.40;99.90;;;;;;2613077;54;20376;-73
2023/06/13 03:20:11;;;;;;;17.87;16.60;;;14.40;99.90;;;;;;2613831;54;20400;-74
2023/06/13 03:29:27;;;;;;;18.87;17.40;;;14.60;99.90;;;;;;2613901;54;20391;-73
2023/06/13 03:35:15;;;;;;;19.47;18.07;;;14.50;99.90;;;;;;2613347;54;20919;-74
2023/06/13 03:41:03;;;;;;;19.10;17.60;;;14.80;99.90;;;;;;2613355;54;20281;-75
2023/06/13 03:46:52;;;;;;;19.37;18.17;;;14.90;99.90;;;;;;2614506;54;20138;-73
2023/06/13 03:52:40;;;;;;;19.70;17.97;;;15.00;99.90;;;;;;2614669;54;20937;-73
2023/06/13 03:58:27;;;;;;;19.00;17.70;;;14.90;99.90;;;;;;2614877;39;20739;-73
2023/06/13 04:04:15;;;;;;;19.60;17.90;;;15.20;99.90;;;;;;2613428;54;20123;-73
2023/06/13 04:10:04;;;;;;;19.90;18.50;;;15.50;99.90;;;;;;2614585;54;20147;-73
2023/06/13 04:15:52;;;;;;;20.33;18.80;;;15.60;99.90;;;;;;2614263;54;20451;-73
2023/06/13 04:21:40;;;;;;;20.20;19.00;;;15.60;99.90;;;;;;2613667;54;21014;-73
2023/06/13 04:27:38;;;;;;;20.93;19.50;;;15.90;99.90;;;;;;2612380;47;20408;-73
2023/06/13 04:33:26;;;;;;;19.40;18.17;;;16.10;99.90;;;;;;2613216;46;20382;-72
2023/06/13 04:39:13;;;;;;;20.50;19.20;;;16.50;99.90;;;;;;2613121;54;20415;-72
2023/06/13 04:45:00;;;;;;;21.37;19.80;;;16.80;99.90;;;;;;2614055;39;20634;-71
2023/06/13 04:50:48;;;;;;;20.93;19.63;;;17.20;99.90;;;;;;2612847;54;20146;-74
2023/06/13 04:56:37;;;;;;;21.60;20.10;;;17.80;91.40;;;;;;2613631;54;20394;-73
2023/06/13 05:02:25;;;;;;;22.20;20.17;;;18.20;70.80;;;;;;2613081;39;20877;-73
2023/06/13 05:08:19;;;;;;;23.60;20.17;;;18.60;59.40;;;;;;2614794;54;20403;-74
2023/06/13 05:14:07;;;;;;;19.27;18.17;;;18.90;50.00;;;;;;2614744;54;20406;-74
2023/06/13 05:19:54;;;;;;;22.57;21.03;;;19.40;44.80;;;;;;2615241;39;20542;-74
2023/06/13 05:29:27;;;;;;;21.07;19.50;;;20.10;31.10;;;;;;2613787;54;20567;-76
2023/06/13 05:35:14;;;;;;;21.73;20.00;;;19.90;34.60;;;;;;2613529;54;20395;-74
2023/06/13 05:41:02;;;;;;;21.37;19.47;;;20.30;28.20;;;;;;2613713;54;20123;-74
2023/06/13 05:46:49;;;;;;;20.17;18.87;;;20.20;28.30;;;;;;2613560;54;20893;-74
2023/06/13 05:52:37;;;;;;;22.50;21.00;;;20.80;26.80;;;;;;2615187;54;20163;-75
2023/06/13 05:58:25;;;;;;;20.80;19.40;;;21.20;20.10;;;;;;2614545;54;20238;-73
2023/06/13 06:04:13;;;;;;;22.03;20.77;;;21.50;19.00;;;;;;2615311;39;20282;-73
2023/06/13 06:10:01;;;;;;;21.53;20.23;;;21.90;14.60;;;;;;2614813;54;20209;-73
2023/06/13 06:15:49;;;;;;;21.83;20.30;;;22.50;11.80;;;;;;2614494;54;20954;-73
2023/06/13 06:21:37;;;;;;;21.00;19.53;;;22.70;10.90;;;;;;2614065;54;20151;-74
2023/06/13 06:27:25;;;;;;;21.80;20.20;;;22.90;10.90;;;;;;2612801;54;20154;-73
2023/06/13 06:36:34;;;;;;;20.07;18.87;;;23.60;8.10;;;;;;2614260;54;20435;-73
2023/06/13 06:42:22;;;;;;;20.60;19.40;;;23.40;7.80;;;;;;2615610;54;20156;-73
2023/06/13 06:48:10;;;;;;;20.60;19.20;;;23.60;7.80;;;;;;2615719;54;20472;-74
2023/06/13 06:53:57;;;;;;;19.67;18.57;;;24.00;3.80;;;;;;2615495;54;20158;-74
2023/06/13 06:59:45;;;;;;;20.90;19.37;;;24.40;1.80;;;;;;2615694;39;20517;-74
2023/06/13 07:05:33;;;;;;;20.23;19.03;;;24.90;1.00;;;;;;2615205;54;20122;-74
2023/06/13 07:11:20;;;;;;;20.57;19.27;;;25.10;1.00;;;;;;2615381;54;21235;-73
2023/06/13 07:17:08;;;;;;;19.80;18.70;;;24.40;1.00;;;;;;2614967;54;20174;-74
2023/06/13 07:22:56;;;;;;;19.67;18.57;;;24.60;1.00;;;;;;2615669;54;20218;-73
2023/06/13 07:28:44;;;;;;;19.03;18.00;;;25.20;1.00;;;;;;2615159;54;20166;-73
2023/06/13 07:32:00;;;;;;;18.93;18.03;;;24.20;1.00;;;;;;2614290;54;20428;-73
2023/06/13 07:34:26;;;;;;;20.63;19.13;;;24.90;1.00;;;;;;2614197;47;20254;-74
2023/06/13 07:40:14;;;;;;;19.77;18.67;;;25.80;1.00;;;;;;2613674;54;20426;-73
2023/06/13 07:46:01;;;;;;;19.27;18.27;;;26.00;1.00;;;;;;2613145;54;20246;-73
2023/06/13 07:51:50;;;;;;;18.80;17.70;;;26.30;1.00;;;;;;2615342;54;20126;-72
2023/06/13 07:57:37;;;;;;;20.13;19.13;;;26.00;1.00;;;;;;2615197;54;20443;-73
2023/06/13 08:03:25;;;;;;;19.30;18.20;;;26.20;1.00;;;;;;2614662;54;20230;-73
2023/06/13 08:09:13;;;;;;;19.00;18.10;;;26.40;1.00;;;;;;2614683;54;20134;-73
2023/06/13 08:15:02;;;;;;;19.10;18.00;;;27.70;1.00;;;;;;2615228;54;20387;-74
2023/06/13 08:20:50;;;;;;;19.53;18.53;;;26.70;1.00;;;;;;2614936;54;20419;-73
2023/06/13 08:26:39;;;;;;;20.07;18.60;;;26.90;1.00;;;;;;2613527;54;20134;-73
2023/06/13 08:36:30;;;;;;;20.13;19.07;;;26.90;1.00;;;;;;2613683;54;20536;-74
2023/06/13 08:42:18;;;;;;;18.17;17.27;;;28.10;1.00;;;;;;2615326;39;21084;-74
2023/06/13 08:48:07;;;;;;;19.37;18.23;;;27.40;1.00;;;;;;2613896;54;20399;-74
2023/06/13 08:53:59;;;;;;;19.07;18.10;;;27.60;1.00;;;;;;2614852;46;20411;-74
2023/06/13 08:59:49;;;;;;;20.43;18.87;;;27.60;1.00;;;;;;2613731;54;20439;-73
2023/06/13 09:05:38;;;;;;;19.00;18.00;;;27.80;1.00;;;;;;2614699;54;20419;-73
2023/06/13 09:11:27;;;;;;;19.40;18.30;;;27.70;1.00;;;;;;2614992;54;20419;-74
2023/06/13 09:17:16;;;;;;;19.00;17.90;;;28.90;1.00;;;;;;2614055;39;20767;-73
2023/06/13 09:23:04;;;;;;;18.20;17.20;;;27.50;1.00;;;;;;2614989;54;20426;-75
2023/06/13 09:28:52;;;;;;;17.43;16.53;;;28.80;1.00;;;;;;2614836;54;20379;-75
2023/06/13 09:32:02;;;;;;;18.70;17.43;;;28.80;1.00;;;;;;2615300;39;20806;-74
2023/06/13 09:34:29;;;;;;;19.20;17.90;;;27.80;1.00;;;;;;2613216;47;20171;-74
2023/06/13 09:40:17;;;;;;;17.13;16.43;;;28.30;1.00;;;;;;2613958;54;20455;-73
2023/06/13 09:46:05;;;;;;;17.90;16.87;;;29.00;1.00;;;;;;2614999;54;20415;-74
2023/06/13 09:51:52;;;;;;;18.93;17.27;;;28.50;1.00;;;;;;2613583;54;20231;-73
2023/06/13 09:57:40;;;;;;;19.17;17.90;;;29.30;1.00;;;;;;2613854;54;20122;-74
2023/06/13 10:03:28;;;;;;;19.20;18.00;;;28.30;1.00;;;;;;2614818;54;20127;-73
2023/06/13 10:09:16;;;;;;;18.50;17.50;;;28.70;1.00;;;;;;2614851;54;20413;-74
2023/06/13 10:15:06;;;;;;;19.53;18.43;;;29.40;1.00;;;;;;2615087;54;20239;-74
2023/06/13 10:20:57;;;;;;;20.37;19.27;;;28.10;1.00;;;;;;2614769;54;20395;-74
2023/06/13 10:26:45;;;;;;;20.40;19.10;;;29.20;1.00;;;;;;2614830;54;20394;-75
2023/06/13 10:36:33;;;;;;;19.47;18.47;;;29.70;1.00;;;;;;2614434;54;20473;-74
2023/06/13 10:42:23;;;;;;;18.73;17.83;;;28.70;1.00;;;;;;2613735;54;20395;-74
2023/06/13 10:48:12;;;;;;;20.07;19.17;;;29.30;1.00;;;;;;2615527;54;20484;-75
2023/06/13 10:54:02;;;;;;;20.80;19.80;;;28.70;1.00;;;;;;2615455;54;20395;-74
2023/06/13 10:59:50;;;;;;;18.87;18.00;;;28.90;1.00;;;;;;2615321;54;20394;-74
2023/06/13 11:12:13;;;;;;;18.97;18.07;;;29.50;1.00;;;;;;2615706;39;20749;-74
2023/06/13 11:24:47;;;;;;;20.17;19.17;;;29.50;1.00;;;;;;2615275;54;20379;-74
2023/06/13 11:30:35;;;;;;;21.70;19.97;;;29.50;1.00;;;;;;2615403;54;20387;-74
2023/06/13 11:36:26;;;;;;;19.97;18.87;;;28.90;1.00;;;;;;2615175;54;20227;-74
2023/06/13 11:42:14;;;;;;;20.33;19.33;;;29.20;1.00;;;;;;2615119;54;20407;-73
2023/06/13 11:48:03;;;;;;;19.30;18.33;;;29.30;1.00;;;;;;2615261;54;20190;-74
2023/06/13 12:00:07;;;;;;;20.17;19.17;;;29.50;1.00;;;;;;2614990;54;20399;-74
2023/06/13 12:05:56;;;;;;;20.20;19.00;;;29.30;1.00;;;;;;2615102;54;20387;-73
2023/06/13 12:11:45;;;;;;;18.73;17.83;;;29.10;1.00;;;;;;2615785;31;20869;-74
2023/06/13 12:17:32;;;;;;;20.40;19.47;;;29.30;1.00;;;;;;2614711;54;20384;-74
2023/06/13 12:23:21;;;;;;;20.80;19.80;;;29.50;1.00;;;;;;2615139;54;20170;-73
2023/06/13 12:29:11;;;;;;;19.80;18.70;;;29.60;1.00;;;;;;2615013;54;20423;-74
2023/06/13 12:32:02;;;;;;;19.27;18.37;;;29.30;1.00;;;;;;2615233;54;20487;-74
2023/06/13 12:34:32;;;;;;;20.77;19.70;;;29.40;1.00;;;;;;2614596;47;20439;-73
2023/06/13 12:46:41;;;;;;;19.60;18.70;;;30.10;1.00;;;;;;2615418;54;20909;-74
2023/06/13 12:52:31;;;;;;;20.33;19.33;;;29.10;1.00;;;;;;2615344;54;20383;-74
2023/06/13 12:58:35;;;;;;;20.83;19.00;;;29.30;1.00;;;;;;2615183;54;20419;-74
2023/06/13 13:04:33;;;;;;;19.80;18.90;;;29.20;1.00;;;;;;2615227;54;20407;-73
2023/06/13 13:10:21;;;;;;;20.47;19.53;;;29.40;1.00;;;;;;2615231;54;20387;-73
2023/06/13 13:16:10;;;;;;;20.20;19.10;;;30.00;1.00;;;;;;2614746;54;20480;-72
2023/06/13 13:21:59;;;;;;;20.50;19.53;;;29.50;1.00;;;;;;2614780;54;20894;-73
2023/06/13 13:27:47;;;;;;;18.57;17.57;;;29.00;1.00;;;;;;2615527;39;21012;-74
2023/06/13 13:36:57;;;;;;;19.00;18.00;;;29.50;1.00;;;;;;2615042;39;20831;-73
2023/06/13 13:42:45;;;;;;;17.53;16.73;;;30.00;1.00;;;;;;2613655;54;20169;-74
2023/06/13 13:48:32;;;;;;;18.63;17.73;;;29.50;1.00;;;;;;2613745;54;20122;-73
2023/06/13 13:54:20;;;;;;;21.63;19.37;;;29.10;1.00;;;;;;2615017;54;20230;-74
2023/06/13 14:00:08;;;;;;;18.17;17.10;;;29.10;1.00;;;;;;2614907;54;20250;-74
2023/06/13 14:05:56;;;;;;;18.17;17.37;;;29.30;1.00;;;;;;2614131;54;20386;-73
2023/06/13 14:11:44;;;;;;;18.67;17.77;;;28.90;1.00;;;;;;2614754;54;20134;-74
2023/06/13 14:17:31;;;;;;;17.90;17.00;;;29.40;1.00;;;;;;2614652;54;20174;-74
2023/06/13 14:23:19;;;;;;;17.97;17.17;;;29.40;1.00;;;;;;2613692;54;20291;-73
2023/06/13 14:29:06;;;;;;;19.30;17.93;;;29.40;1.00;;;;;;2615021;54;20147;-74
2023/06/13 14:32:18;;;;;;;17.60;16.70;;;29.30;1.00;;;;;;2614151;54;20930;-74
2023/06/13 14:34:44;;;;;;;19.23;18.23;;;29.40;1.00;;;;;;2614252;47;20193;-73
2023/06/13 14:40:32;;;;;;;19.27;18.17;;;29.30;1.00;;;;;;2613498;54;20151;-74
2023/06/13 14:46:20;;;;;;;18.53;17.63;;;28.90;1.00;;;;;;2614530;54;20500;-74
2023/06/13 14:52:08;;;;;;;18.23;17.00;;;29.00;1.00;;;;;;2613770;54;20126;-73
2023/06/13 14:57:57;;;;;;;19.23;18.33;;;30.10;1.00;;;;;;2614660;54;20399;-74
2023/06/13 15:03:49;;;;;;;19.33;18.33;;;28.90;1.00;;;;;;2615280;54;20386;-74
2023/06/13 15:09:38;;;;;;;18.20;17.40;;;29.60;1.00;;;;;;2615710;54;21144;-73
2023/06/13 15:15:25;;;;;;;18.97;18.07;;;29.20;1.00;;;;;;2614914;54;20427;-73
2023/06/13 15:21:13;;;;;;;19.37;18.47;;;29.20;1.00;;;;;;2615092;54;20259;-75
2023/06/13 15:27:00;;;;;;;19.07;18.07;;;29.50;1.00;;;;;;2615227;54;20122;-74
2023/06/13 15:36:48;;;;;;;18.30;17.47;;;29.20;1.00;;;;;;2614627;54;20387;-74
2023/06/13 15:42:35;;;;;;;18.90;17.90;;;29.10;1.00;;;;;;2615394;54;20930;-74
2023/06/13 15:48:23;;;;;;;19.40;18.30;;;28.90;1.00;;;;;;2615598;54;20129;-75
2023/06/13 15:54:11;;;;;;;18.67;17.87;;;28.50;1.00;;;;;;2615077;54;20975;-73
2023/06/13 15:59:58;;;;;;;21.23;20.13;;;28.70;1.00;;;;;;2614015;54;20158;-73
2023/06/13 16:05:46;;;;;;;18.73;17.60;;;29.00;1.00;;;;;;2614949;54;20253;-73
2023/06/13 16:11:33;;;;;;;20.30;19.17;;;29.50;1.00;;;;;;2615137;54;20146;-74
2023/06/13 16:17:21;;;;;;;20.10;18.73;;;29.50;1.00;;;;;;2614251;54;20130;-74
2023/06/13 16:23:10;;;;;;;18.90;17.80;;;29.70;1.00;;;;;;2615570;54;20135;-73
2023/06/13 16:28:59;;;;;;;19.60;18.30;;;29.70;1.00;;;;;;2615329;54;20395;-75
2023/06/13 16:32:19;;;;;;;18.63;17.83;;;28.70;1.00;;;;;;2612665;47;20981;-73
2023/06/13 16:34:45;;;;;;;21.07;19.63;;;28.70;1.00;;;;;;2614502;48;20428;-74
2023/06/13 16:40:33;;;;;;;19.93;18.93;;;28.40;1.00;;;;;;2614852;54;20414;-74
2023/06/13 16:46:21;;;;;;;20.70;19.50;;;28.10;1.00;;;;;;2613124;54;20277;-73
2023/06/13 16:52:10;;;;;;;20.57;19.27;;;28.20;1.00;;;;;;2615111;54;20154;-75
2023/06/13 16:57:58;;;;;;;20.63;19.47;;;28.20;1.00;;;;;;2614411;54;20383;-73
2023/06/13 17:03:45;;;;;;;20.27;19.33;;;27.70;1.00;;;;;;2613610;54;20122;-73
2023/06/13 17:09:34;;;;;;;19.70;18.70;;;27.40;1.00;;;;;;2613931;54;20130;-74
2023/06/13 17:15:22;;;;;;;21.60;20.40;;;28.10;1.00;;;;;;2614732;54;20430;-73
2023/06/13 17:21:10;;;;;;;20.60;19.50;;;27.60;1.00;;;;;;2614596;54;20134;-73
2023/06/13 17:27:00;;;;;;;21.90;20.40;;;27.50;1.00;;;;;;2614945;39;20693;-74
2023/06/13 17:36:48;;;;;;;24.57;22.77;;;27.40;1.00;;;;;;2614728;54;20400;-74
2023/06/13 17:42:38;;;;;;;23.63;21.80;;;27.10;1.00;;;;;;2614537;54;20464;-74
2023/06/13 17:48:25;;;;;;;22.17;20.87;;;26.40;1.00;;;;;;2614773;54;20396;-73
2023/06/13 17:54:13;;;;;;;21.17;20.17;;;26.10;1.00;;;;;;2615210;39;20529;-73
2023/06/13 18:00:01;;;;;;;21.50;20.47;;;26.10;1.00;;;;;;2613765;54;20145;-72
2023/06/13 18:05:49;;;;;;;21.07;19.87;;;26.00;1.00;;;;;;2615134;39;20661;-73
2023/06/13 18:11:37;;;;;;;22.47;21.27;;;25.80;1.00;;;;;;2614798;54;20399;-73
2023/06/13 18:17:25;;;;;;;21.37;20.33;;;25.70;1.00;;;;;;2614643;54;20134;-73
2023/06/13 18:23:13;;;;;;;21.80;20.60;;;25.60;1.00;;;;;;2614603;54;20644;-72
2023/06/13 18:29:01;;;;;;;21.47;20.27;;;25.40;1.00;;;;;;2614160;54;20419;-73
2023/06/13 18:35:02;;;;;;;21.80;20.20;;;25.20;1.00;;;;;;2612827;54;20161;-74
2023/06/13 18:40:50;;;;;;;22.03;20.67;;;25.10;1.00;;;;;;2613387;54;20146;-75
2023/06/13 18:46:37;;;;;;;21.43;20.23;;;24.90;1.00;;;;;;2613445;54;20184;-73
2023/06/13 18:52:24;;;;;;;21.10;20.00;;;24.80;1.00;;;;;;2613533;54;20130;-74
2023/06/13 18:58:13;;;;;;;23.17;21.67;;;24.70;1.00;;;;;;2612598;54;20390;-73
2023/06/13 19:04:01;;;;;;;22.30;21.00;;;24.60;1.00;;;;;;2613930;39;20920;-73
2023/06/13 19:09:48;;;;;;;21.97;20.53;;;24.40;1.00;;;;;;2614126;54;20171;-73
2023/06/13 19:15:36;;;;;;;20.37;19.07;;;24.30;1.00;;;;;;2614544;54;20438;-74
2023/06/13 19:21:26;;;;;;;21.50;20.40;;;24.10;1.00;;;;;;2614488;54;20153;-74
2023/06/13 19:27:13;;;;;;;22.97;21.67;;;23.90;1.00;;;;;;2615317;54;20391;-73
2023/06/13 19:36:48;;;;;;;21.23;20.07;;;23.60;1.00;;;;;;2614375;54;20978;-74
2023/06/13 19:42:38;;;;;;;22.37;21.17;;;23.40;1.00;;;;;;2614994;46;20447;-73
2023/06/13 19:48:26;;;;;;;22.00;20.90;;;23.20;1.00;;;;;;2610852;54;20403;-76
2023/06/13 19:54:14;;;;;;;21.40;20.20;;;23.10;1.00;;;;;;2615430;54;20234;-76
2023/06/13 20:00:05;;;;;;;21.43;20.33;;;22.90;1.00;;;;;;2615416;39;20578;-77
2023/06/13 20:05:54;;;;;;;23.10;21.77;;;22.70;1.00;;;;;;2614137;54;20929;-77
2023/06/13 20:11:41;;;;;;;22.90;21.60;;;22.40;1.00;;;;;;2614602;39;20968;-76
2023/06/13 20:17:31;;;;;;;21.53;20.30;;;22.30;1.00;;;;;;2614536;54;20130;-75
2023/06/13 20:23:19;;;;;;;22.40;21.00;;;22.00;1.00;;;;;;2614718;54;21071;-76
2023/06/13 20:29:07;;;;;;;23.03;21.73;;;21.90;1.00;;;;;;2614919;54;20230;-77
2023/06/13 20:32:19;;;;;;;22.67;21.50;;;21.80;1.00;;;;;;2614228;54;20415;-75
2023/06/13 20:34:45;;;;;;;22.77;21.33;;;21.70;1.00;;;;;;2614348;47;20189;-76
2023/06/13 20:40:33;;;;;;;21.53;20.37;;;21.50;1.00;;;;;;2614517;54;20482;-76
2023/06/13 20:46:21;;;;;;;22.13;20.73;;;21.40;1.00;;;;;;2615154;54;20159;-77
2023/06/13 20:52:09;;;;;;;22.83;21.43;;;21.10;1.00;;;;;;2615097;54;20519;-77
2023/06/13 20:57:58;;;;;;;22.77;21.47;;;21.00;1.00;;;;;;2614666;54;20415;-77
2023/06/13 21:03:47;;;;;;;23.23;21.90;;;20.60;1.00;;;;;;2614926;54;20924;-77
2023/06/13 21:09:35;;;;;;;23.93;22.10;;;20.20;1.00;;;;;;2615074;54;20387;-77
2023/06/13 21:15:24;;;;;;;22.70;21.30;;;20.10;1.00;;;;;;2614655;54;20633;-79
2023/06/13 21:21:11;;;;;;;21.93;20.73;;;20.00;1.00;;;;;;2615671;39;20765;-77
2023/06/13 21:26:59;;;;;;;23.80;22.40;;;19.80;1.00;;;;;;2615183;54;20134;-77
2023/06/13 21:36:48;;;;;;;22.33;20.70;;;19.20;4.30;;;;;;2614173;54;20390;-77
2023/06/13 21:42:36;;;;;;;24.40;22.77;;;18.70;7.00;;;;;;2614652;54;21266;-77
2023/06/13 21:48:24;;;;;;;23.57;22.17;;;18.80;13.40;;;;;;2614976;54;20496;-77
2023/06/13 21:54:12;;;;;;;23.17;21.53;;;18.40;14.50;;;;;;2614463;39;20547;-78
2023/06/13 22:00:00;;;;;;;21.90;20.70;;;18.20;23.60;;;;;;2615293;54;20488;-77
2023/06/13 22:05:48;;;;;;;23.63;21.80;;;18.30;21.50;;;;;;2615059;54;20363;-77
2023/06/13 22:11:39;;;;;;;22.90;21.50;;;18.20;24.20;;;;;;2614537;54;20968;-77
2023/06/13 22:17:30;;;;;;;22.83;21.53;;;18.30;24.20;;;;;;2613585;54;20411;-78
2023/06/13 22:23:18;;;;;;;23.50;22.10;;;18.10;22.90;;;;;;2614340;54;20976;-77
2023/06/13 22:29:06;;;;;;;24.27;22.83;;;18.20;22.90;;;;;;2614541;54;20134;-78
2023/06/13 22:32:19;;;;;;;23.00;21.67;;;18.10;25.90;;;;;;2613854;54;20416;-78
2023/06/13 22:34:45;;;;;;;23.57;21.93;;;18.00;29.10;;;;;;2612492;54;20172;-77
2023/06/13 22:40:33;;;;;;;23.87;22.00;;;17.90;26.80;;;;;;2613910;54;20138;-77
2023/06/13 22:46:20;;;;;;;21.97;20.53;;;17.70;30.40;;;;;;2614596;54;20147;-77
2023/06/13 22:52:08;;;;;;;23.67;22.37;;;17.70;38.80;;;;;;2613552;54;20233;-77
2023/06/13 22:57:57;;;;;;;23.93;22.40;;;17.40;39.20;;;;;;2614611;54;20134;-77
2023/06/13 23:03:45;;;;;;;23.67;22.27;;;17.50;41.50;;;;;;2614357;54;20496;-77
2023/06/13 23:09:33;;;;;;;24.57;23.10;;;17.50;45.80;;;;;;2614266;39;20514;-77
2023/06/13 23:15:20;;;;;;;24.77;23.17;;;17.50;41.40;;;;;;2614569;54;20399;-75
2023/06/13 23:21:11;;;;;;;24.93;23.43;;;17.60;33.40;;;;;;2613176;54;20657;-77
2023/06/13 23:26:58;;;;;;;21.83;20.63;;;17.70;30.50;;;;;;2613311;54;20402;-77
2023/06/13 23:36:49;;;;;;;23.90;22.50;;;17.80;33.50;;;;;;2615814;39;20795;-76
2023/06/13 23:42:37;;;;;;;22.67;21.30;;;17.70;36.90;;;;;;2613970;54;20436;-77
2023/06/13 23:48:25;;;;;;;22.70;21.10;;;17.60;37.10;;;;;;2615178;54;20359;-77
2023/06/13 23:54:14;;;;;;;22.27;20.67;;;17.60;36.40;;;;;;2615435;54;20134;-76
